createdAt,value
2018-01-24T00:02:20.548Z,9.70
2018-01-24T00:04:48.287Z,8.90
2018-01-24T00:07:15.856Z,9.40
2018-01-24T00:09:43.400Z,9.10
2018-01-24T00:12:11.238Z,10.83
2018-01-24T00:14:39.578Z,8.90
2018-01-24T00:17:07.097Z,9.10
2018-01-24T00:19:34.659Z,9.60
2018-01-24T00:22:03.183Z,9.47
2018-01-24T00:24:30.756Z,10.27
2018-01-24T00:26:58.334Z,10.87
2018-01-24T00:29:26.656Z,10.83
2018-01-24T00:31:54.236Z,10.33
2018-01-24T00:34:21.943Z,10.50
2018-01-24T00:36:49.466Z,10.03
2018-01-24T00:39:17.000Z,8.90
2018-01-24T00:41:44.627Z,9.50
2018-01-24T00:44:12.090Z,9.60
2018-01-24T00:46:39.555Z,9.70
2018-01-24T00:49:07.240Z,9.80
2018-01-24T00:51:34.821Z,10.87
2018-01-24T00:54:02.359Z,9.27
2018-01-24T00:56:30.069Z,9.30
2018-01-24T00:58:57.650Z,10.10
2018-01-24T01:01:25.244Z,10.43
2018-01-24T01:03:53.120Z,9.57
2018-01-24T01:06:20.654Z,10.17
2018-01-24T01:08:48.179Z,10.80
2018-01-24T01:11:16.043Z,9.80
2018-01-24T01:13:43.587Z,10.97
2018-01-24T01:16:11.169Z,9.57
2018-01-24T01:18:38.735Z,10.83
2018-01-24T01:21:06.275Z,9.80
2018-01-24T01:23:33.803Z,11.30
2018-01-24T01:26:03.521Z,10.53
2018-01-24T01:28:31.059Z,10.23
2018-01-24T01:30:58.591Z,9.77
2018-01-24T01:33:26.164Z,10.10
2018-01-24T01:35:53.708Z,10.63
2018-01-24T01:38:21.285Z,10.77
2018-01-24T01:40:48.977Z,10.00
2018-01-24T01:43:16.502Z,10.87
2018-01-24T01:45:44.083Z,10.07
2018-01-24T01:48:11.790Z,11.10
2018-01-24T01:50:40.137Z,10.37
2018-01-24T01:53:08.493Z,10.50
2018-01-24T01:55:36.107Z,9.90
2018-01-24T01:58:03.679Z,9.93
2018-01-24T02:00:31.254Z,10.27
2018-01-24T02:02:59.688Z,12.13
2018-01-24T02:05:27.279Z,12.67
2018-01-24T02:07:54.845Z,13.07
2018-01-24T02:10:22.470Z,11.93
2018-01-24T02:12:50.007Z,12.47
2018-01-24T02:15:17.551Z,12.83
2018-01-24T02:17:45.103Z,12.10
2018-01-24T02:20:12.692Z,12.97
2018-01-24T02:22:40.212Z,12.90
2018-01-24T02:25:07.775Z,12.50
2018-01-24T02:27:35.366Z,12.60
2018-01-24T02:30:02.951Z,12.23
2018-01-24T02:32:30.797Z,13.10
2018-01-24T02:34:58.362Z,12.70
2018-01-24T02:37:25.874Z,12.63
2018-01-24T02:39:54.333Z,12.57
2018-01-24T02:42:21.917Z,12.23
2018-01-24T02:44:49.493Z,13.53
2018-01-24T02:47:17.961Z,12.17
2018-01-24T02:49:45.549Z,12.13
2018-01-24T02:52:13.139Z,11.70
2018-01-24T02:54:40.956Z,12.63
2018-01-24T02:57:08.644Z,11.47
2018-01-24T02:59:36.216Z,12.00
2018-01-24T03:02:04.589Z,11.40
2018-01-24T03:04:32.904Z,11.23
2018-01-24T03:07:00.482Z,12.30
2018-01-24T03:09:28.243Z,12.80
2018-01-24T03:11:56.542Z,12.70
2018-01-24T03:14:24.107Z,14.23
2018-01-24T03:16:51.845Z,13.60
2018-01-24T03:19:19.425Z,12.90
2018-01-24T03:21:46.999Z,11.80
2018-01-24T03:24:14.580Z,13.13
2018-01-24T03:26:42.148Z,13.77
2018-01-24T03:29:09.736Z,12.73
2018-01-24T03:31:37.357Z,11.03
2018-01-24T03:34:05.714Z,13.27
2018-01-24T03:36:34.072Z,14.17
2018-01-24T03:39:01.672Z,14.20
2018-01-24T03:41:29.251Z,13.47
2018-01-24T03:43:56.828Z,11.73
2018-01-24T03:46:25.296Z,12.50
2018-01-24T03:48:52.831Z,10.93
2018-01-24T03:51:21.166Z,13.27
2018-01-24T03:53:49.524Z,13.47
2018-01-24T03:56:17.100Z,12.67
2018-01-24T03:58:45.695Z,12.87
2018-01-24T04:01:13.579Z,12.37
2018-01-24T04:03:41.119Z,12.93
2018-01-24T04:06:08.697Z,11.70
2018-01-24T04:08:37.076Z,11.70
2018-01-24T04:11:04.665Z,10.57
2018-01-24T04:13:32.213Z,12.33
2018-01-24T04:15:59.921Z,12.77
2018-01-24T04:18:27.505Z,11.33
2018-01-24T04:20:55.085Z,11.67
2018-01-24T04:23:23.456Z,11.37
2018-01-24T04:25:51.763Z,12.00
2018-01-24T04:28:19.333Z,10.83
2018-01-24T04:30:46.899Z,10.80
2018-01-24T04:33:15.153Z,11.13
2018-01-24T04:35:42.724Z,11.30
2018-01-24T04:38:11.052Z,9.40
2018-01-24T04:40:38.633Z,10.50
2018-01-24T04:43:06.175Z,11.07
2018-01-24T04:45:33.937Z,11.30
2018-01-24T04:48:01.524Z,11.37
2018-01-24T04:50:29.100Z,10.90
2018-01-24T04:52:57.565Z,9.63
2018-01-24T04:55:25.889Z,10.50
2018-01-24T04:57:53.444Z,10.70
2018-01-24T05:00:21.050Z,11.10
2018-01-24T05:02:48.598Z,9.77
2018-01-24T05:05:16.140Z,10.33
2018-01-24T05:07:43.791Z,10.30
2018-01-24T05:10:11.368Z,9.43
2018-01-24T05:12:38.911Z,8.60
2018-01-24T05:15:06.488Z,8.90
2018-01-24T05:17:34.066Z,9.13
2018-01-24T05:20:01.636Z,9.50
2018-01-24T05:22:29.351Z,9.27
2018-01-24T05:24:56.925Z,8.47
2018-01-24T05:27:24.508Z,9.10
2018-01-24T05:29:52.215Z,9.43
2018-01-24T05:32:19.793Z,9.60
2018-01-24T05:34:48.112Z,10.03
2018-01-24T05:37:15.680Z,9.13
2018-01-24T05:39:43.157Z,8.07
2018-01-24T05:42:10.729Z,8.83
2018-01-24T05:44:38.368Z,7.93
2018-01-24T05:47:05.949Z,9.80
2018-01-24T05:49:33.491Z,9.13
2018-01-24T05:52:01.152Z,12.60
2018-01-24T05:54:29.471Z,11.00
2018-01-24T05:56:57.049Z,10.00
2018-01-24T05:59:24.616Z,10.07
2018-01-24T06:01:52.285Z,9.07
2018-01-24T06:04:19.978Z,9.90
2018-01-24T06:06:47.580Z,10.03
2018-01-24T06:09:15.152Z,10.07
2018-01-24T06:11:42.720Z,9.70
2018-01-24T06:14:10.460Z,9.50
2018-01-24T06:16:38.004Z,11.13
2018-01-24T06:19:05.547Z,12.07
2018-01-24T06:21:33.141Z,11.30
2018-01-24T06:24:00.714Z,11.60
2018-01-24T06:26:28.252Z,11.10
2018-01-24T06:28:55.801Z,11.63
2018-01-24T06:31:23.312Z,11.30
2018-01-24T06:33:50.926Z,10.70
2018-01-24T06:36:19.427Z,13.27
2018-01-24T06:38:47.000Z,14.30
2018-01-24T06:41:14.495Z,14.83
2018-01-24T06:43:42.820Z,11.90
2018-01-24T06:46:10.400Z,12.40
2018-01-24T06:48:37.984Z,11.77
2018-01-24T06:51:05.719Z,10.97
2018-01-24T06:53:33.255Z,10.83
2018-01-24T06:56:00.805Z,12.53
2018-01-24T06:58:28.371Z,13.07
2018-01-24T07:00:55.909Z,12.73
2018-01-24T07:03:23.451Z,12.67
2018-01-24T07:05:51.151Z,12.40
2018-01-24T07:08:19.509Z,12.10
2018-01-24T07:10:47.821Z,11.20
2018-01-24T07:13:27.208Z,11.33
2018-01-24T07:15:54.761Z,11.90
2018-01-24T07:18:22.342Z,10.97
2018-01-24T07:20:49.970Z,11.63
2018-01-24T07:23:17.507Z,11.07
2018-01-24T07:25:45.092Z,11.73
2018-01-24T07:28:13.082Z,13.33
2018-01-24T07:30:40.567Z,13.27
2018-01-24T07:33:08.134Z,11.47
2018-01-24T07:35:35.749Z,11.70
2018-01-24T07:38:03.360Z,11.43
2018-01-24T07:40:30.903Z,12.63
2018-01-24T07:42:59.022Z,11.60
2018-01-24T07:45:26.564Z,11.67
2018-01-24T07:47:54.140Z,9.90
2018-01-24T07:50:22.504Z,11.77
2018-01-24T07:52:50.845Z,11.43
2018-01-24T07:55:19.188Z,10.73
2018-01-24T07:57:46.960Z,11.23
2018-01-24T08:00:14.503Z,10.60
2018-01-24T08:02:43.264Z,11.97
2018-01-24T08:05:10.847Z,12.07
2018-01-24T08:07:38.402Z,11.17
2018-01-24T08:10:05.934Z,11.90
2018-01-24T08:12:33.742Z,13.40
2018-01-24T08:15:01.280Z,11.40
2018-01-24T08:17:28.825Z,10.80
2018-01-24T08:19:56.441Z,13.13
2018-01-24T08:22:24.021Z,10.93
2018-01-24T08:24:51.497Z,12.10
2018-01-24T08:27:19.838Z,11.37
2018-01-24T08:29:47.375Z,11.60
2018-01-24T08:32:14.912Z,11.90
2018-01-24T08:34:42.513Z,9.80
2018-01-24T08:37:10.055Z,11.10
2018-01-24T08:39:37.599Z,10.27
2018-01-24T08:42:05.188Z,11.33
2018-01-24T08:44:32.764Z,10.30
2018-01-24T08:47:00.347Z,9.17
2018-01-24T08:49:27.914Z,9.20
2018-01-24T08:51:55.549Z,9.57
2018-01-24T08:54:23.086Z,9.27
2018-01-24T08:56:50.957Z,9.20
2018-01-24T08:59:18.533Z,9.70
2018-01-24T09:01:46.863Z,9.07
2018-01-24T09:04:14.652Z,8.73
2018-01-24T09:06:42.363Z,8.80
2018-01-24T09:09:09.950Z,8.50
2018-01-24T09:11:37.605Z,8.63
2018-01-24T09:14:05.136Z,8.67
2018-01-24T09:16:32.707Z,8.57
2018-01-24T09:19:00.304Z,8.60
2018-01-24T09:21:28.644Z,8.90
2018-01-24T09:23:56.195Z,9.27
2018-01-24T09:26:23.803Z,10.43
2018-01-24T09:28:51.286Z,9.50
2018-01-24T09:31:18.853Z,9.13
2018-01-24T09:33:46.704Z,10.03
2018-01-24T09:36:14.950Z,9.43
2018-01-24T09:38:44.488Z,7.80
2018-01-24T09:41:12.372Z,7.83
2018-01-24T09:43:39.948Z,7.50
2018-01-24T09:46:08.361Z,8.03
2018-01-24T09:48:36.080Z,8.40
2018-01-24T09:51:03.626Z,8.23
2018-01-24T09:53:31.199Z,7.83
2018-01-24T09:55:59.049Z,7.30
2018-01-24T09:58:26.583Z,7.20
2018-01-24T10:00:54.154Z,6.77
2018-01-24T10:03:22.053Z,7.37
2018-01-24T10:05:49.588Z,6.10
2018-01-24T10:08:17.594Z,6.10
2018-01-24T10:10:45.459Z,5.43
2018-01-24T10:13:13.028Z,5.40
2018-01-24T10:15:41.351Z,5.40
2018-01-24T10:18:08.941Z,5.23
2018-01-24T10:20:36.492Z,4.60
2018-01-24T10:23:04.074Z,3.97
2018-01-24T10:25:31.847Z,3.50
2018-01-24T10:27:59.418Z,3.30
2018-01-24T10:30:26.987Z,3.80
2018-01-24T10:32:54.784Z,3.80
2018-01-24T10:35:22.801Z,3.50
2018-01-24T10:37:50.753Z,3.83
2018-01-24T10:40:18.714Z,3.73
2018-01-24T10:42:46.297Z,4.30
2018-01-24T10:45:13.861Z,3.43
2018-01-24T10:47:42.304Z,3.53
2018-01-24T10:50:09.873Z,3.80
2018-01-24T10:52:38.262Z,3.40
2018-01-24T10:55:06.049Z,3.53
2018-01-24T10:57:33.717Z,3.70
2018-01-24T11:00:02.060Z,3.70
2018-01-24T11:02:29.669Z,3.87
2018-01-24T11:04:57.248Z,3.60
2018-01-24T11:07:24.806Z,3.73
2018-01-24T11:09:52.525Z,3.93
2018-01-24T11:12:20.103Z,3.67
2018-01-24T11:14:47.672Z,3.40
2018-01-24T11:17:15.411Z,3.40
2018-01-24T11:19:42.881Z,3.10
2018-01-24T11:22:10.427Z,2.83
2018-01-24T11:24:38.756Z,2.80
2018-01-24T11:27:06.221Z,2.80
2018-01-24T11:29:33.747Z,3.00
2018-01-24T11:32:01.602Z,3.40
2018-01-24T11:34:29.226Z,2.93
2018-01-24T11:36:56.802Z,3.10
2018-01-24T11:39:25.461Z,3.20
2018-01-24T11:41:53.032Z,3.60
2018-01-24T11:44:21.337Z,3.10
2018-01-24T11:46:49.149Z,2.97
2018-01-24T11:49:18.484Z,2.83
2018-01-24T11:51:46.021Z,3.07
2018-01-24T11:54:13.629Z,2.77
2018-01-24T11:56:41.167Z,2.70
2018-01-24T11:59:09.505Z,3.10
2018-01-24T12:01:37.100Z,3.00
2018-01-24T12:04:05.072Z,2.87
2018-01-24T12:06:32.616Z,3.10
2018-01-24T12:09:00.227Z,3.20
2018-01-24T12:11:27.764Z,2.47
2018-01-24T12:13:55.337Z,2.57
2018-01-24T12:16:22.950Z,3.27
2018-01-24T12:18:50.525Z,3.30
2018-01-24T12:21:18.064Z,3.93
2018-01-24T12:23:45.660Z,3.40
2018-01-24T12:26:13.355Z,3.70
2018-01-24T12:28:40.925Z,3.70
2018-01-24T12:31:08.700Z,3.50
2018-01-24T12:33:36.279Z,3.83
2018-01-24T12:36:03.864Z,4.00
2018-01-24T12:38:31.659Z,3.90
2018-01-24T12:40:59.288Z,4.03
2018-01-24T12:43:27.595Z,3.60
2018-01-24T12:45:55.250Z,4.10
2018-01-24T12:48:22.825Z,3.67
2018-01-24T12:50:50.370Z,3.60
2018-01-24T12:53:19.035Z,3.57
2018-01-24T12:55:46.602Z,3.57
2018-01-24T12:58:14.124Z,3.43
2018-01-24T13:00:41.948Z,3.70
2018-01-24T13:03:09.474Z,3.80
2018-01-24T13:05:37.037Z,3.97
2018-01-24T13:08:04.558Z,3.73
2018-01-24T13:10:32.084Z,4.10
2018-01-24T13:12:59.636Z,3.53
2018-01-24T13:15:27.238Z,4.03
2018-01-24T13:17:54.817Z,4.30
2018-01-24T13:20:22.399Z,4.10
2018-01-24T13:22:50.009Z,4.27
2018-01-24T13:25:17.559Z,4.00
2018-01-24T13:27:45.142Z,4.10
2018-01-24T13:30:12.699Z,4.40
2018-01-24T13:32:40.250Z,4.07
2018-01-24T13:35:07.791Z,3.93
2018-01-24T13:37:35.542Z,4.10
2018-01-24T13:40:03.117Z,3.80
2018-01-24T13:42:30.662Z,4.10
2018-01-24T13:44:58.415Z,3.63
2018-01-24T13:47:25.960Z,3.70
2018-01-24T13:49:53.564Z,4.13
2018-01-24T13:52:21.389Z,3.60
2018-01-24T13:54:48.939Z,3.80
2018-01-24T13:57:16.523Z,4.00
2018-01-24T13:59:45.130Z,3.90
2018-01-24T14:02:12.626Z,3.53
2018-01-24T14:04:40.094Z,3.43
2018-01-24T14:07:08.075Z,4.07
2018-01-24T14:09:35.616Z,3.60
2018-01-24T14:12:03.165Z,3.90
2018-01-24T14:14:30.803Z,4.17
2018-01-24T14:16:58.354Z,3.57
2018-01-24T14:19:25.900Z,3.67
2018-01-24T14:21:53.765Z,3.57
2018-01-24T14:24:21.316Z,3.33
2018-01-24T14:26:48.896Z,3.27
2018-01-24T14:29:16.844Z,3.20
2018-01-24T14:31:44.445Z,3.77
2018-01-24T14:34:11.989Z,3.57
2018-01-24T14:36:39.593Z,3.47
2018-01-24T14:39:07.136Z,4.17
2018-01-24T14:41:34.676Z,3.17
2018-01-24T14:44:02.317Z,3.50
2018-01-24T14:46:29.917Z,3.40
2018-01-24T14:48:57.500Z,3.30
2018-01-24T14:51:26.028Z,3.50
2018-01-24T14:53:54.396Z,3.27
2018-01-24T14:56:21.955Z,3.20
2018-01-24T14:58:50.545Z,3.50
2018-01-24T15:01:18.087Z,3.43
2018-01-24T15:03:45.631Z,4.20
2018-01-24T15:06:13.241Z,4.50
2018-01-24T15:08:40.817Z,3.93
2018-01-24T15:11:09.168Z,3.83
2018-01-24T15:13:37.752Z,3.60
2018-01-24T15:16:06.093Z,3.40
2018-01-24T15:18:33.630Z,4.00
2018-01-24T15:21:01.229Z,3.60
2018-01-24T15:23:28.813Z,3.40
2018-01-24T15:25:56.290Z,3.70
2018-01-24T15:28:24.648Z,3.10
2018-01-24T15:30:52.191Z,3.20
2018-01-24T15:33:19.752Z,3.00
2018-01-24T15:35:47.350Z,3.30
2018-01-24T15:38:14.928Z,3.57
2018-01-24T15:40:43.283Z,4.20
2018-01-24T15:43:11.626Z,5.60
2018-01-24T15:45:39.114Z,7.30
2018-01-24T15:48:06.684Z,7.67
2018-01-24T15:50:34.248Z,6.77
2018-01-24T15:53:01.828Z,6.57
2018-01-24T15:55:29.382Z,6.20
2018-01-24T15:57:57.216Z,5.63
2018-01-24T16:00:24.821Z,5.10
2018-01-24T16:02:52.327Z,5.53
2018-01-24T16:05:20.165Z,5.40
2018-01-24T16:07:47.708Z,5.03
2018-01-24T16:10:15.276Z,4.20
2018-01-24T16:12:43.117Z,4.57
2018-01-24T16:15:10.660Z,4.37
2018-01-24T16:17:38.178Z,4.70
2018-01-24T16:20:06.536Z,4.70
2018-01-24T16:22:34.847Z,6.47
2018-01-24T16:25:02.321Z,8.47
2018-01-24T16:27:30.147Z,8.20
2018-01-24T16:29:57.687Z,11.73
2018-01-24T16:32:25.269Z,8.83
2018-01-24T16:34:53.798Z,8.73
2018-01-24T16:37:21.370Z,8.30
2018-01-24T16:39:48.949Z,6.80
2018-01-24T16:42:16.868Z,5.40
2018-01-24T16:44:45.190Z,4.20
2018-01-24T16:47:12.733Z,4.97
2018-01-24T16:49:40.617Z,5.47
2018-01-24T16:52:08.214Z,5.23
2018-01-24T16:54:35.836Z,5.77
2018-01-24T16:57:04.261Z,5.80
2018-01-24T16:59:31.828Z,9.17
2018-01-24T17:01:59.375Z,8.73
2018-01-24T17:04:27.689Z,7.20
2018-01-24T17:06:55.260Z,7.57
2018-01-24T17:09:22.841Z,8.47
2018-01-24T17:11:50.422Z,10.83
2018-01-24T17:14:18.200Z,9.37
2018-01-24T17:16:45.793Z,9.03
2018-01-24T17:19:13.728Z,8.23
2018-01-24T17:21:42.076Z,6.73
2018-01-24T17:24:09.615Z,5.63
2018-01-24T17:26:37.177Z,6.00
2018-01-24T17:29:05.485Z,6.40
2018-01-24T17:31:33.028Z,5.23
2018-01-24T17:34:00.895Z,7.63
2018-01-24T17:36:28.445Z,7.37
2018-01-24T17:38:56.024Z,6.60
2018-01-24T17:41:24.400Z,6.90
2018-01-24T17:43:51.943Z,6.37
2018-01-24T17:46:19.480Z,6.03
2018-01-24T17:48:47.076Z,5.07
2018-01-24T17:51:14.645Z,6.00
2018-01-24T17:53:44.164Z,5.63
2018-01-24T17:56:11.761Z,5.80
2018-01-24T17:58:39.333Z,6.90
2018-01-24T18:01:07.646Z,12.00
2018-01-24T18:03:35.352Z,12.17
2018-01-24T18:06:03.725Z,10.90
2018-01-24T18:08:31.279Z,10.73
2018-01-24T18:10:58.864Z,11.77
2018-01-24T18:13:26.449Z,10.30
2018-01-24T18:15:54.014Z,9.17
2018-01-24T18:18:21.713Z,8.07
2018-01-24T18:20:49.251Z,7.30
2018-01-24T18:23:16.787Z,7.70
2018-01-24T18:25:44.361Z,7.33
2018-01-24T18:28:12.669Z,9.10
2018-01-24T18:30:40.241Z,9.07
2018-01-24T18:33:09.857Z,9.40
2018-01-24T18:35:37.420Z,8.37
2018-01-24T18:38:05.032Z,9.80
2018-01-24T18:40:32.654Z,10.13
2018-01-24T18:43:00.204Z,10.10
2018-01-24T18:45:27.773Z,9.33
2018-01-24T18:47:56.047Z,9.00
2018-01-24T18:50:24.383Z,8.07
2018-01-24T18:52:51.973Z,8.37
2018-01-24T18:55:19.570Z,7.50
2018-01-24T18:57:47.078Z,8.00
2018-01-24T19:00:14.641Z,8.10
2018-01-24T19:02:42.251Z,9.70
2018-01-24T19:05:09.823Z,9.07
2018-01-24T19:07:37.364Z,9.27
2018-01-24T19:10:04.965Z,9.53
2018-01-24T19:12:32.507Z,9.23
2018-01-24T19:15:00.800Z,7.90
2018-01-24T19:17:28.499Z,7.93
2018-01-24T19:19:56.769Z,8.53
2018-01-24T19:22:24.221Z,9.03
2018-01-24T19:24:51.913Z,8.90
2018-01-24T19:27:21.363Z,8.73
2018-01-24T19:29:48.972Z,9.20
2018-01-24T19:32:16.577Z,8.43
2018-01-24T19:34:44.121Z,9.13
2018-01-24T19:37:11.665Z,8.83
2018-01-24T19:39:39.269Z,9.57
2018-01-24T19:42:06.827Z,11.20
2018-01-24T19:44:35.251Z,10.13
2018-01-24T19:47:02.856Z,10.20
2018-01-24T19:49:30.394Z,9.33
2018-01-24T19:51:58.707Z,8.23
2018-01-24T19:54:26.259Z,8.83
2018-01-24T19:56:54.628Z,8.47
2018-01-24T19:59:22.930Z,9.30
2018-01-24T20:01:50.484Z,8.23
2018-01-24T20:04:18.056Z,8.93
2018-01-24T20:06:45.596Z,7.90
2018-01-24T20:09:13.427Z,7.67
2018-01-24T20:11:41.076Z,7.90
2018-01-24T20:14:08.653Z,7.80
2018-01-24T20:16:36.223Z,8.07
2018-01-24T20:19:03.797Z,7.73
2018-01-24T20:21:31.380Z,7.73
2018-01-24T20:23:58.931Z,8.07
2018-01-24T20:26:26.540Z,8.27
2018-01-24T20:28:54.189Z,7.77
2018-01-24T20:31:21.796Z,8.10
2018-01-24T20:33:49.330Z,7.90
2018-01-24T20:36:16.914Z,8.20
2018-01-24T20:38:44.516Z,7.83
2018-01-24T20:41:12.852Z,7.87
2018-01-24T20:43:40.428Z,7.40
2018-01-24T20:46:08.117Z,7.50
2018-01-24T20:48:35.647Z,7.00
2018-01-24T20:51:03.229Z,8.13
2018-01-24T20:53:30.800Z,9.37
2018-01-24T20:55:58.347Z,10.10
2018-01-24T20:58:26.736Z,9.03
2018-01-24T21:00:54.341Z,8.03
2018-01-24T21:03:22.655Z,8.93
2018-01-24T21:05:50.227Z,8.70
2018-01-24T21:08:17.869Z,8.93
2018-01-24T21:10:45.404Z,8.20
2018-01-24T21:13:12.935Z,8.40
2018-01-24T21:15:40.803Z,9.43
2018-01-24T21:18:15.131Z,9.10
2018-01-24T21:20:43.549Z,9.47
2018-01-24T21:23:11.067Z,8.77
2018-01-24T21:25:41.734Z,9.43
2018-01-24T21:28:15.377Z,13.37
2018-01-24T21:30:54.923Z,23.30
2018-01-24T21:33:34.287Z,33.23
2018-01-24T21:36:02.751Z,23.87
2018-01-24T21:38:35.180Z,22.27
2018-01-24T21:41:02.727Z,20.43
2018-01-24T21:43:30.276Z,20.07
2018-01-24T21:45:58.169Z,15.70
2018-01-24T21:48:25.745Z,11.77
2018-01-24T21:50:53.292Z,10.03
2018-01-24T21:53:20.999Z,9.87
2018-01-24T21:55:48.543Z,7.93
2018-01-24T21:58:16.149Z,7.37
2018-01-24T22:00:43.794Z,6.93
2018-01-24T22:03:11.335Z,6.10
2018-01-24T22:05:38.937Z,6.27
2018-01-24T22:08:06.702Z,5.30
2018-01-24T22:10:34.235Z,5.30
2018-01-24T22:13:01.801Z,5.20
2018-01-24T22:15:30.406Z,4.77
2018-01-24T22:17:58.657Z,4.33
2018-01-24T22:20:26.129Z,4.93
2018-01-24T22:22:54.540Z,5.50
2018-01-24T22:25:22.123Z,5.10
2018-01-24T22:27:50.429Z,9.83
2018-01-24T22:30:18.128Z,6.50
2018-01-24T22:32:46.841Z,6.60
2018-01-24T22:35:14.541Z,6.87
2018-01-24T22:37:42.928Z,6.03
2018-01-24T22:40:11.018Z,6.87
2018-01-24T22:42:38.870Z,7.50
2018-01-24T22:45:06.765Z,6.93
2018-01-24T22:47:34.482Z,7.60
2018-01-24T22:50:02.324Z,7.83
2018-01-24T22:52:29.921Z,8.30
2018-01-24T22:54:57.472Z,7.77
2018-01-24T22:57:25.046Z,7.50
2018-01-24T22:59:52.789Z,7.87
2018-01-24T23:02:20.331Z,6.93
2018-01-24T23:04:47.960Z,7.40
2018-01-24T23:07:15.525Z,9.93
2018-01-24T23:09:43.117Z,8.93
2018-01-24T23:12:10.655Z,12.13
2018-01-24T23:14:38.260Z,10.23
2018-01-24T23:17:05.838Z,9.93
2018-01-24T23:19:33.387Z,11.10
2018-01-24T23:22:01.009Z,17.67
2018-01-24T23:24:28.549Z,19.37
2018-01-24T23:26:56.111Z,18.07
2018-01-24T23:29:23.790Z,10.93
2018-01-24T23:31:52.140Z,8.07
2018-01-24T23:34:20.473Z,8.50
2018-01-24T23:36:48.191Z,7.60
2018-01-24T23:39:15.730Z,6.87
2018-01-24T23:41:43.272Z,7.30
2018-01-24T23:44:10.970Z,6.20
2018-01-24T23:46:38.520Z,5.63
2018-01-24T23:49:06.079Z,5.67
2018-01-24T23:51:34.445Z,5.63
2018-01-24T23:54:02.010Z,6.27
2018-01-24T23:56:29.560Z,5.10
2018-01-24T23:58:58.168Z,5.70
